Aérodrome :
LOGIN :

S'inscrire | Disclaimer

   EN    FR    IT 

 










Légende :    VFR   VFR Marginal   IFR   IFR Intensif   IFR Très Intensif
Visi : 
Plafond : 
>= 8 km
>= 3000ft
5 à 8 km
1000 à 3000 ft
1500m à 5 km
500 à 1000 ft
800 à 1500m
200 à 500 ft
< 800m
< 200 ft
Symboles :   Orages  Brouillard  Fortes neiges  Fortes précipitations  Vent > 20 kt
SIGMETs :   Divers  Orages  Givrage  Turbulence  Onde Orograph.  Cendres Volcan.






- Altitude de l'aérodrome : 755 ft
- Code IATA : RWN


UKLR - Rivne

DERNIER METAR :
  • 151400Z 27005MPS 3100 -SN OVC005 M08/M10 Q1011 R29/493226 NOSIG

METARs EXPIRÉS :
  • 151330Z 27005MPS 4600 -SN OVC006 M09/M10 Q1011 R29/493226 NOSIG
  • 151300Z 28006MPS 9999 BKN007 M09/M11 Q1011 R29/493226 NOSIG
  • 151230Z 28006MPS 9999 BKN005 M09/M11 Q1011 R29/493226 NOSIG
  • 151200Z 28006MPS 9999 -SN OVC006 M09/M11 Q1011 R29/493226 NOSIG
  • 151130Z 28006MPS 6000 -SN OVC007 M09/M11 Q1012 R29/493226 NOSIG

TAF TAF UKLR
Valide du 15 à 12h jusqu'au 15 à 21h UTC


151103Z 1512/1521 30005MPS 5000 -SN OVC006
TEMPO 1512/1518 34005G10MPS 2100 -SHSN BKN004 BKN010CB



MET'MAP, la Météo Aéronautique d'un coup d'oeil ! - Copyright ORBIFLY Décembre 2007 - Disclaimer

ORBIFLY MET'MAP TEAM :

Programmation & Développement : Alexandra Zaïnal
Sur une idée originale de : Baudouin d'Aumeries
Assistance à la programmation : Marc-Olivier Méhu
Soutien technique & logistique : Manuel Goepfert

Contact : metmap@orbifly.com




SOURCES & CREDITS :

   NOAA